createdAt,value
2018-07-20T00:00:54.179Z,21.86
2018-07-20T00:03:22.914Z,21.89
2018-07-20T00:05:51.656Z,21.81
2018-07-20T00:08:20.364Z,21.71
2018-07-20T00:10:49.082Z,21.64
2018-07-20T00:13:17.866Z,21.63
2018-07-20T00:15:46.722Z,21.64
2018-07-20T00:18:15.457Z,21.68
2018-07-20T00:20:44.161Z,21.72
2018-07-20T00:23:12.875Z,21.64
2018-07-20T00:25:41.653Z,21.63
2018-07-20T00:28:10.368Z,21.74
2018-07-20T00:30:39.083Z,21.76
2018-07-20T00:33:07.782Z,21.72
2018-07-20T00:35:36.489Z,21.81
2018-07-20T00:38:05.404Z,21.87
2018-07-20T00:40:34.105Z,21.86
2018-07-20T00:43:02.821Z,21.84
2018-07-20T00:45:31.541Z,21.84
2018-07-20T00:48:00.246Z,21.80
2018-07-20T00:50:29.000Z,21.77
2018-07-20T00:52:57.724Z,21.75
2018-07-20T00:55:26.451Z,21.71
2018-07-20T00:57:55.170Z,21.76
2018-07-20T01:00:23.860Z,21.86
2018-07-20T01:02:52.800Z,21.91
2018-07-20T01:05:21.569Z,21.95
2018-07-20T01:07:50.274Z,21.96
2018-07-20T01:10:19.185Z,22.00
2018-07-20T01:12:47.999Z,22.04
2018-07-20T01:15:16.725Z,22.01
2018-07-20T01:17:45.476Z,21.91
2018-07-20T01:20:14.309Z,21.90
2018-07-20T01:22:43.013Z,21.95
2018-07-20T01:25:11.710Z,21.93
2018-07-20T01:27:40.741Z,21.87
2018-07-20T01:30:09.441Z,21.83
2018-07-20T01:32:38.149Z,21.81
2018-07-20T01:35:06.914Z,21.78
2018-07-20T01:37:35.616Z,21.69
2018-07-20T01:40:04.563Z,21.76
2018-07-20T01:42:33.290Z,21.71
2018-07-20T01:45:02.021Z,21.69
2018-07-20T01:47:30.824Z,21.77
2018-07-20T01:49:59.537Z,21.76
2018-07-20T01:52:28.317Z,21.72
2018-07-20T01:54:57.017Z,21.83
2018-07-20T01:57:25.797Z,21.81
2018-07-20T01:59:54.523Z,21.80
2018-07-20T02:02:23.233Z,21.85
2018-07-20T02:04:52.018Z,21.91
2018-07-20T02:07:20.745Z,21.94
2018-07-20T02:09:49.546Z,22.03
2018-07-20T02:12:18.322Z,22.05
2018-07-20T02:14:48.231Z,22.12
2018-07-20T02:17:17.025Z,22.19
2018-07-20T02:19:45.730Z,22.21
2018-07-20T02:22:14.433Z,22.25
2018-07-20T02:24:43.609Z,22.29
2018-07-20T02:27:12.310Z,22.33
2018-07-20T02:29:41.012Z,22.40
2018-07-20T02:32:09.734Z,22.45
2018-07-20T02:34:38.461Z,22.47
2018-07-20T02:37:07.229Z,22.51
2018-07-20T02:39:35.961Z,22.53
2018-07-20T02:42:04.679Z,22.54
2018-07-20T02:44:33.492Z,22.61
2018-07-20T02:47:02.223Z,22.64
2018-07-20T02:49:30.905Z,22.63
2018-07-20T02:51:59.650Z,22.72
2018-07-20T02:54:28.370Z,22.69
2018-07-20T02:56:57.094Z,22.72
2018-07-20T02:59:25.812Z,22.71
2018-07-20T03:01:54.590Z,22.74
2018-07-20T03:04:23.323Z,22.76
2018-07-20T03:06:52.033Z,22.78
2018-07-20T03:09:20.737Z,22.76
2018-07-20T03:11:49.463Z,22.77
2018-07-20T03:14:18.180Z,22.88
2018-07-20T03:16:46.901Z,22.90
2018-07-20T03:19:15.618Z,22.88
2018-07-20T03:21:44.354Z,22.91
2018-07-20T03:24:13.052Z,22.96
2018-07-20T03:26:41.781Z,23.03
2018-07-20T03:29:10.527Z,23.04
2018-07-20T03:31:39.226Z,23.11
2018-07-20T03:34:07.942Z,23.06
2018-07-20T03:36:36.820Z,23.02
2018-07-20T03:39:07.793Z,23.02
2018-07-20T03:41:37.013Z,22.99
2018-07-20T03:44:05.716Z,22.93
2018-07-20T03:46:34.439Z,22.98
2018-07-20T03:49:03.202Z,22.84
2018-07-20T03:51:31.968Z,22.81
2018-07-20T03:54:00.680Z,22.75
2018-07-20T03:56:29.559Z,22.73
2018-07-20T03:58:58.398Z,22.75
2018-07-20T04:01:27.097Z,22.75
2018-07-20T04:03:55.813Z,22.75
2018-07-20T04:06:24.509Z,22.79
2018-07-20T04:08:53.218Z,22.83
2018-07-20T04:11:21.937Z,22.90
2018-07-20T04:13:50.657Z,22.98
2018-07-20T04:16:19.468Z,23.16
2018-07-20T04:18:48.245Z,23.25
2018-07-20T04:21:16.994Z,23.43
2018-07-20T04:23:45.729Z,23.63
2018-07-20T04:26:14.466Z,23.98
2018-07-20T04:28:43.218Z,25.16
2018-07-20T04:31:12.048Z,26.33
2018-07-20T04:33:40.751Z,26.88
2018-07-20T04:36:09.499Z,27.37
2018-07-20T04:38:38.205Z,28.15
2018-07-20T04:41:06.932Z,27.99
2018-07-20T04:43:35.638Z,27.63
2018-07-20T04:46:04.357Z,27.52
2018-07-20T04:48:33.081Z,27.12
2018-07-20T04:51:01.813Z,27.34
2018-07-20T04:53:30.522Z,27.43
2018-07-20T04:55:59.223Z,27.24
2018-07-20T04:58:27.938Z,26.92
2018-07-20T05:00:56.638Z,26.66
2018-07-20T05:03:25.459Z,26.74
2018-07-20T05:05:54.426Z,27.06
2018-07-20T05:08:23.360Z,27.39
2018-07-20T05:10:52.069Z,27.54
2018-07-20T05:13:20.774Z,27.52
2018-07-20T05:15:49.842Z,27.36
2018-07-20T05:18:18.578Z,27.48
2018-07-20T05:20:47.291Z,27.40
2018-07-20T05:23:15.994Z,27.61
2018-07-20T05:25:44.739Z,27.71
2018-07-20T05:28:13.446Z,27.70
2018-07-20T05:30:42.168Z,27.75
2018-07-20T05:33:10.902Z,27.80
2018-07-20T05:35:39.746Z,27.65
2018-07-20T05:38:08.521Z,27.48
2018-07-20T05:40:37.216Z,27.45
2018-07-20T05:43:05.941Z,27.19
2018-07-20T05:45:34.689Z,27.31
2018-07-20T05:48:03.508Z,27.37
2018-07-20T05:50:32.229Z,27.26
2018-07-20T05:53:00.931Z,27.29
2018-07-20T05:55:29.653Z,27.34
2018-07-20T05:57:58.361Z,27.57
2018-07-20T06:00:27.073Z,27.60
2018-07-20T06:02:55.806Z,27.54
2018-07-20T06:05:24.493Z,27.74
2018-07-20T06:07:53.191Z,28.25
2018-07-20T06:10:21.913Z,28.50
2018-07-20T06:12:50.621Z,28.62
2018-07-20T06:15:19.587Z,28.46
2018-07-20T06:17:48.814Z,28.39
2018-07-20T06:20:17.538Z,29.06
2018-07-20T06:22:46.300Z,30.05
2018-07-20T06:25:15.021Z,30.61
2018-07-20T06:27:43.758Z,30.98
2018-07-20T06:30:12.477Z,32.22
2018-07-20T06:32:41.173Z,33.60
2018-07-20T06:35:09.883Z,34.91
2018-07-20T06:37:38.606Z,35.72
2018-07-20T06:40:07.402Z,35.77
2018-07-20T06:42:36.213Z,36.87
2018-07-20T06:45:05.787Z,35.45
2018-07-20T06:47:34.631Z,35.64
2018-07-20T06:50:07.417Z,37.40
2018-07-20T06:52:36.130Z,37.00
2018-07-20T06:55:04.924Z,36.03
2018-07-20T06:57:33.652Z,36.38
2018-07-20T07:00:02.379Z,36.48
2018-07-20T07:02:31.151Z,35.58
2018-07-20T07:04:59.891Z,36.22
2018-07-20T07:07:28.648Z,36.17
2018-07-20T07:09:57.467Z,36.93
2018-07-20T07:12:26.189Z,36.56
2018-07-20T07:14:54.934Z,36.65
2018-07-20T07:17:23.608Z,36.12
2018-07-20T07:19:52.306Z,35.59
2018-07-20T07:22:21.092Z,34.77
2018-07-20T07:24:49.906Z,33.97
2018-07-20T07:27:18.770Z,34.17
2018-07-20T07:29:47.502Z,34.07
2018-07-20T07:32:16.233Z,34.76
2018-07-20T07:34:44.927Z,34.75
2018-07-20T07:37:13.669Z,35.21
2018-07-20T07:39:42.396Z,36.14
2018-07-20T07:42:11.149Z,35.58
2018-07-20T07:44:39.910Z,34.65
2018-07-20T07:47:08.651Z,36.09
2018-07-20T07:49:37.483Z,36.20
2018-07-20T07:52:06.521Z,35.83
2018-07-20T07:54:35.221Z,35.45
2018-07-20T07:57:03.955Z,34.94
2018-07-20T07:59:32.840Z,34.30
2018-07-20T08:02:01.801Z,33.67
2018-07-20T08:04:30.825Z,31.98
2018-07-20T08:06:59.549Z,31.84
2018-07-20T08:09:28.274Z,31.25
2018-07-20T08:11:56.973Z,31.09
2018-07-20T08:14:25.695Z,30.99
2018-07-20T08:16:54.390Z,30.78
2018-07-20T08:19:23.086Z,30.50
2018-07-20T08:21:51.793Z,30.20
2018-07-20T08:24:20.490Z,30.29
2018-07-20T08:26:49.232Z,30.34
2018-07-20T08:29:18.719Z,30.81
2018-07-20T08:31:47.449Z,31.04
2018-07-20T08:34:16.254Z,31.51
2018-07-20T08:36:44.997Z,32.29
2018-07-20T08:39:14.301Z,31.56
2018-07-20T08:41:43.361Z,31.56
2018-07-20T08:44:12.425Z,33.70
2018-07-20T08:46:41.586Z,35.99
2018-07-20T08:49:10.843Z,36.71
2018-07-20T08:51:39.912Z,36.61
2018-07-20T08:54:08.659Z,36.12
2018-07-20T08:56:37.519Z,36.04
2018-07-20T08:59:06.539Z,36.92
2018-07-20T09:01:35.207Z,38.16
2018-07-20T09:04:03.954Z,38.27
2018-07-20T09:06:32.686Z,36.92
2018-07-20T09:09:01.386Z,37.29
2018-07-20T09:11:30.089Z,36.43
2018-07-20T09:13:58.891Z,36.92
2018-07-20T09:16:27.556Z,35.75
2018-07-20T09:18:56.262Z,34.83
2018-07-20T09:21:25.019Z,33.87
2018-07-20T09:23:53.715Z,33.29
2018-07-20T09:26:22.414Z,33.42
2018-07-20T09:28:51.141Z,33.38
2018-07-20T09:31:19.918Z,33.93
2018-07-20T09:33:48.705Z,35.00
2018-07-20T09:36:17.417Z,35.58
2018-07-20T09:38:46.161Z,36.50
2018-07-20T09:41:14.913Z,38.03
2018-07-20T09:43:43.605Z,37.33
2018-07-20T09:46:12.333Z,37.95
2018-07-20T09:48:41.053Z,36.74
2018-07-20T09:51:09.747Z,36.44
2018-07-20T09:53:38.438Z,36.53
2018-07-20T09:56:08.042Z,36.55
2018-07-20T09:58:36.746Z,35.92
2018-07-20T10:01:05.606Z,37.28
2018-07-20T10:03:34.337Z,38.28
2018-07-20T10:06:03.742Z,37.86
2018-07-20T10:08:32.476Z,36.56
2018-07-20T10:11:01.188Z,37.62
2018-07-20T10:13:29.942Z,38.06
2018-07-20T10:15:58.641Z,37.14
2018-07-20T10:18:27.484Z,36.27
2018-07-20T10:20:56.172Z,35.29
2018-07-20T10:23:24.878Z,34.88
2018-07-20T10:25:53.588Z,35.17
2018-07-20T10:28:22.411Z,36.39
2018-07-20T10:30:51.175Z,36.86
2018-07-20T10:33:19.942Z,35.97
2018-07-20T10:35:48.822Z,35.34
2018-07-20T10:38:17.545Z,35.31
2018-07-20T10:40:46.254Z,34.76
2018-07-20T10:43:15.139Z,34.73
2018-07-20T10:45:43.878Z,34.19
2018-07-20T10:48:12.596Z,33.98
2018-07-20T10:50:41.364Z,34.28
2018-07-20T10:53:10.062Z,33.52
2018-07-20T10:55:38.793Z,33.81
2018-07-20T10:58:07.511Z,33.48
2018-07-20T11:00:36.229Z,33.10
2018-07-20T11:03:04.944Z,32.92
2018-07-20T11:05:33.670Z,33.72
2018-07-20T11:08:02.392Z,35.56
2018-07-20T11:10:31.125Z,35.57
2018-07-20T11:12:59.898Z,35.14
2018-07-20T11:15:28.625Z,34.20
2018-07-20T11:17:57.354Z,34.35
2018-07-20T11:20:26.167Z,34.87
2018-07-20T11:22:54.851Z,35.08
2018-07-20T11:25:23.552Z,35.19
2018-07-20T11:27:52.304Z,35.06
2018-07-20T11:30:21.032Z,34.72
2018-07-20T11:32:49.803Z,36.09
2018-07-20T11:35:18.520Z,36.71
2018-07-20T11:37:47.629Z,35.78
2018-07-20T11:40:16.357Z,35.13
2018-07-20T11:42:45.063Z,34.76
2018-07-20T11:45:13.752Z,35.44
2018-07-20T11:47:42.601Z,34.92
2018-07-20T11:50:11.310Z,35.10
2018-07-20T11:52:40.050Z,36.67
2018-07-20T11:55:08.750Z,38.01
2018-07-20T11:57:37.450Z,36.19
2018-07-20T12:00:06.845Z,35.20
2018-07-20T12:02:35.959Z,35.05
2018-07-20T12:05:05.450Z,34.43
2018-07-20T12:07:34.526Z,33.92
2018-07-20T12:10:03.758Z,33.35
2018-07-20T12:12:32.746Z,34.61
2018-07-20T12:15:01.934Z,34.89
2018-07-20T12:17:31.195Z,34.98
2018-07-20T12:20:00.439Z,34.71
2018-07-20T12:22:29.738Z,35.18
2018-07-20T12:24:58.986Z,35.32
2018-07-20T12:27:28.150Z,35.59
2018-07-20T12:29:57.339Z,35.41
2018-07-20T12:32:26.533Z,35.69
2018-07-20T12:34:55.631Z,35.76
2018-07-20T12:37:24.942Z,34.84
2018-07-20T12:39:54.269Z,34.75
2018-07-20T12:42:23.568Z,34.22
2018-07-20T12:44:52.735Z,33.91
2018-07-20T12:47:21.924Z,33.55
2018-07-20T12:49:51.142Z,33.24
2018-07-20T12:52:20.399Z,33.39
2018-07-20T12:54:49.653Z,33.18
2018-07-20T12:57:18.926Z,33.24
2018-07-20T12:59:48.425Z,32.82
2018-07-20T13:02:17.638Z,32.91
2018-07-20T13:04:46.842Z,32.95
2018-07-20T13:07:16.070Z,33.19
2018-07-20T13:09:45.301Z,33.37
2018-07-20T13:12:14.448Z,33.22
2018-07-20T13:14:43.432Z,33.42
2018-07-20T13:17:12.617Z,33.24
2018-07-20T13:19:41.848Z,33.06
2018-07-20T13:22:11.018Z,33.12
2018-07-20T13:24:40.230Z,32.85
2018-07-20T13:27:09.537Z,33.07
2018-07-20T13:29:38.709Z,33.21
2018-07-20T13:32:07.918Z,33.18
2018-07-20T13:34:37.207Z,33.51
2018-07-20T13:37:06.512Z,33.36
2018-07-20T13:39:35.728Z,33.64
2018-07-20T13:42:04.908Z,33.68
2018-07-20T13:44:34.112Z,34.10
2018-07-20T13:47:03.305Z,34.32
2018-07-20T13:49:32.393Z,34.38
2018-07-20T13:52:01.653Z,33.98
2018-07-20T13:54:30.599Z,34.06
2018-07-20T13:56:59.815Z,34.36
2018-07-20T13:59:28.882Z,34.43
2018-07-20T14:01:58.071Z,34.44
2018-07-20T14:04:27.442Z,34.56
2018-07-20T14:06:56.697Z,34.90
2018-07-20T14:09:26.004Z,35.34
2018-07-20T14:11:55.299Z,35.54
2018-07-20T14:14:24.487Z,35.07
2018-07-20T14:16:53.734Z,35.07
2018-07-20T14:19:23.001Z,34.90
2018-07-20T14:21:52.267Z,34.73
2018-07-20T14:24:21.377Z,34.66
2018-07-20T14:26:50.565Z,34.40
2018-07-20T14:29:20.068Z,34.66
2018-07-20T14:31:49.318Z,34.99
2018-07-20T14:34:18.372Z,34.85
2018-07-20T14:36:47.572Z,34.38
2018-07-20T14:39:16.775Z,34.45
2018-07-20T14:41:46.166Z,34.19
2018-07-20T14:44:15.370Z,33.53
2018-07-20T14:46:44.678Z,33.03
2018-07-20T14:49:14.078Z,33.28
2018-07-20T14:51:43.188Z,33.20
2018-07-20T14:54:12.419Z,33.23
2018-07-20T14:56:41.569Z,33.26
2018-07-20T14:59:10.891Z,33.19
2018-07-20T15:01:39.973Z,33.00
2018-07-20T15:04:12.200Z,33.14
2018-07-20T15:06:44.839Z,33.26
2018-07-20T15:09:17.227Z,33.29
2018-07-20T15:11:49.680Z,33.08
2018-07-20T15:14:21.370Z,33.15
2018-07-20T15:16:54.241Z,33.15
2018-07-20T15:19:27.233Z,32.94
2018-07-20T15:22:00.174Z,32.68
2018-07-20T15:24:33.332Z,32.45
2018-07-20T15:27:06.049Z,32.41
2018-07-20T15:29:39.570Z,32.34
2018-07-20T15:32:11.544Z,32.24
2018-07-20T15:34:44.210Z,31.92
2018-07-20T15:37:17.148Z,31.88
2018-07-20T15:39:49.749Z,31.71
2018-07-20T15:42:22.275Z,31.77
2018-07-20T15:44:54.789Z,31.61
2018-07-20T15:47:27.996Z,31.45
2018-07-20T15:50:01.081Z,31.34
2018-07-20T15:55:06.719Z,31.19
2018-07-20T15:57:39.838Z,31.12
2018-07-20T16:00:13.472Z,31.09
2018-07-20T16:02:46.232Z,30.78
2018-07-20T16:05:19.442Z,30.74
2018-07-20T16:07:51.557Z,30.56
2018-07-20T16:10:23.939Z,30.52
2018-07-20T16:12:56.105Z,30.43
2018-07-20T16:15:28.369Z,30.37
2018-07-20T16:18:00.540Z,30.05
2018-07-20T16:20:32.669Z,30.09
2018-07-20T16:23:04.650Z,30.08
2018-07-20T16:25:36.990Z,30.06
2018-07-20T16:28:09.081Z,30.01
2018-07-20T16:30:42.127Z,29.97
2018-07-20T16:33:14.560Z,29.93
2018-07-20T16:35:46.706Z,29.88
2018-07-20T16:38:18.564Z,29.81
2018-07-20T16:40:51.026Z,29.72
2018-07-20T16:43:23.408Z,29.65
2018-07-20T16:45:55.580Z,29.54
2018-07-20T16:48:24.829Z,29.43
2018-07-20T16:50:54.005Z,29.37
2018-07-20T16:53:23.298Z,29.30
2018-07-20T16:55:52.553Z,29.21
2018-07-20T16:58:21.927Z,29.09
2018-07-20T17:00:51.127Z,28.97
2018-07-20T17:03:20.356Z,28.80
2018-07-20T17:05:49.445Z,28.66
2018-07-20T17:08:18.950Z,28.53
2018-07-20T17:10:48.135Z,28.45
2018-07-20T17:13:17.327Z,28.33
2018-07-20T17:15:46.417Z,28.19
2018-07-20T17:18:15.514Z,28.12
2018-07-20T17:20:44.634Z,28.04
2018-07-20T17:23:13.827Z,27.93
2018-07-20T17:25:43.063Z,27.76
2018-07-20T17:28:12.291Z,27.63
2018-07-20T17:30:41.401Z,27.54
2018-07-20T17:33:10.366Z,27.47
2018-07-20T17:35:39.465Z,27.35
2018-07-20T17:38:08.493Z,27.20
2018-07-20T17:40:37.626Z,27.07
2018-07-20T17:43:06.957Z,26.98
2018-07-20T17:45:35.786Z,26.89
2018-07-20T17:48:04.990Z,26.81
2018-07-20T17:50:34.277Z,26.74
2018-07-20T17:53:03.618Z,26.57
2018-07-20T17:55:32.373Z,26.44
2018-07-20T17:58:01.086Z,26.29
2018-07-20T18:00:29.822Z,26.20
2018-07-20T18:02:58.534Z,26.17
2018-07-20T18:05:27.296Z,26.10
2018-07-20T18:07:56.644Z,25.99
2018-07-20T18:10:25.945Z,25.90
2018-07-20T18:12:55.154Z,25.83
2018-07-20T18:15:23.919Z,25.60
2018-07-20T18:17:53.130Z,25.50
2018-07-20T18:20:22.244Z,25.48
2018-07-20T18:22:51.316Z,25.47
2018-07-20T18:25:20.571Z,25.52
2018-07-20T18:27:49.797Z,25.40
2018-07-20T18:30:19.008Z,25.34
2018-07-20T18:32:48.213Z,25.31
2018-07-20T18:35:17.416Z,25.30
2018-07-20T18:37:46.364Z,25.20
2018-07-20T18:40:15.524Z,25.17
2018-07-20T18:42:44.316Z,25.16
2018-07-20T18:45:13.092Z,25.06
2018-07-20T18:47:41.853Z,24.98
2018-07-20T18:50:11.375Z,24.93
2018-07-20T18:52:40.153Z,24.89
2018-07-20T18:55:08.926Z,24.86
2018-07-20T18:57:37.650Z,24.89
2018-07-20T19:00:06.786Z,24.80
2018-07-20T19:02:35.573Z,24.77
2018-07-20T19:05:04.270Z,24.77
2018-07-20T19:07:33.029Z,24.77
2018-07-20T19:10:02.293Z,24.78
2018-07-20T19:12:31.509Z,24.70
2018-07-20T19:15:00.627Z,24.70
2018-07-20T19:17:29.730Z,24.68
2018-07-20T19:19:58.760Z,24.59
2018-07-20T19:22:27.980Z,24.55
2018-07-20T19:24:57.480Z,24.40
2018-07-20T19:27:26.837Z,24.30
2018-07-20T19:29:56.085Z,24.24
2018-07-20T19:32:25.297Z,24.16
2018-07-20T19:34:54.454Z,24.12
2018-07-20T19:37:23.705Z,24.07
2018-07-20T19:39:52.877Z,24.05
2018-07-20T19:42:22.314Z,24.06
2018-07-20T19:44:51.520Z,24.05
2018-07-20T19:47:20.669Z,24.04
2018-07-20T19:49:49.861Z,24.02
2018-07-20T19:52:19.139Z,23.99
2018-07-20T19:54:48.259Z,23.95
2018-07-20T19:57:17.362Z,23.92
2018-07-20T19:59:46.597Z,23.90
2018-07-20T20:02:15.805Z,23.87
2018-07-20T20:04:45.080Z,23.74
2018-07-20T20:07:14.155Z,23.64
2018-07-20T20:09:43.186Z,23.59
2018-07-20T20:12:12.264Z,23.53
2018-07-20T20:14:41.927Z,23.50
2018-07-20T20:17:11.177Z,23.41
2018-07-20T20:19:40.152Z,23.49
2018-07-20T20:22:09.369Z,23.46
2018-07-20T20:24:38.600Z,23.48
2018-07-20T20:27:07.982Z,23.41
2018-07-20T20:29:37.269Z,23.33
2018-07-20T20:32:06.556Z,23.31
2018-07-20T20:34:36.036Z,23.31
2018-07-20T20:37:05.370Z,23.35
2018-07-20T20:39:35.054Z,23.33
2018-07-20T20:42:07.462Z,23.28
2018-07-20T20:44:39.032Z,23.26
2018-07-20T20:47:10.689Z,23.27
2018-07-20T20:49:40.980Z,23.30
2018-07-20T20:52:12.580Z,23.29
2018-07-20T20:54:42.344Z,23.31
2018-07-20T20:57:13.162Z,23.38
2018-07-20T20:59:44.820Z,23.35
2018-07-20T21:02:16.149Z,23.27
2018-07-20T21:04:47.467Z,23.26
2018-07-20T21:07:18.460Z,23.23
2018-07-20T21:09:47.937Z,23.19
2018-07-20T21:12:17.204Z,23.09
2018-07-20T21:14:46.241Z,22.96
2018-07-20T21:17:15.441Z,22.88
2018-07-20T21:19:44.737Z,22.88
2018-07-20T21:22:13.972Z,22.85
2018-07-20T21:24:43.149Z,22.79
2018-07-20T21:27:12.176Z,22.81
2018-07-20T21:29:43.630Z,22.85
2018-07-20T21:32:12.690Z,22.90
2018-07-20T21:34:41.950Z,22.87
2018-07-20T21:37:11.301Z,22.85
2018-07-20T21:39:40.566Z,22.82
2018-07-20T21:42:09.705Z,22.76
2018-07-20T21:44:38.885Z,22.65
2018-07-20T21:47:07.980Z,22.57
2018-07-20T21:49:37.262Z,22.56
2018-07-20T21:52:06.377Z,22.51
2018-07-20T21:54:35.406Z,22.53
2018-07-20T21:57:04.583Z,22.50
2018-07-20T21:59:33.775Z,22.47
2018-07-20T22:02:02.974Z,22.49
2018-07-20T22:04:32.058Z,22.43
2018-07-20T22:07:01.163Z,22.39
2018-07-20T22:09:30.347Z,22.40
2018-07-20T22:11:59.166Z,22.28
2018-07-20T22:14:27.893Z,22.25
2018-07-20T22:16:56.655Z,22.20
2018-07-20T22:19:25.360Z,22.15
2018-07-20T22:21:54.205Z,22.11
2018-07-20T22:24:23.026Z,22.02
2018-07-20T22:26:51.933Z,21.95
2018-07-20T22:29:20.881Z,21.93
2018-07-20T22:31:49.602Z,21.86
2018-07-20T22:34:18.329Z,21.85
2018-07-20T22:36:47.084Z,21.91
2018-07-20T22:39:15.809Z,21.79
2018-07-20T22:41:44.540Z,21.75
2018-07-20T22:44:13.263Z,21.71
2018-07-20T22:46:42.006Z,21.76
2018-07-20T22:49:10.777Z,21.73
2018-07-20T22:51:39.536Z,21.67
2018-07-20T22:54:08.237Z,21.60
2018-07-20T22:56:36.974Z,21.49
2018-07-20T22:59:05.866Z,21.41
2018-07-20T23:01:34.565Z,21.40
2018-07-20T23:04:03.310Z,21.41
2018-07-20T23:06:32.050Z,21.36
2018-07-20T23:09:00.805Z,21.38
2018-07-20T23:11:29.529Z,21.35
2018-07-20T23:13:58.314Z,21.36
2018-07-20T23:16:27.069Z,21.37
2018-07-20T23:18:55.960Z,21.37
2018-07-20T23:21:24.947Z,21.38
2018-07-20T23:23:53.678Z,21.39
2018-07-20T23:26:22.456Z,21.41
2018-07-20T23:28:51.195Z,21.45
2018-07-20T23:31:19.953Z,21.49
2018-07-20T23:33:49.203Z,21.49
2018-07-20T23:36:18.384Z,21.55
2018-07-20T23:38:47.613Z,21.49
2018-07-20T23:41:16.775Z,21.46
2018-07-20T23:43:45.982Z,21.36
2018-07-20T23:46:15.190Z,21.34
2018-07-20T23:48:44.480Z,21.29
2018-07-20T23:51:13.734Z,21.22
2018-07-20T23:53:43.071Z,21.19
2018-07-20T23:56:12.370Z,21.19
2018-07-20T23:58:41.090Z,21.21
